createdAt,value
2022-09-21T00:01:14.860Z,202.82353
2022-09-21T00:06:16.643Z,200.66667
2022-09-21T00:11:18.418Z,193.39271
2022-09-21T00:16:20.270Z,194.4065
2022-09-21T00:21:21.964Z,195.42857
2022-09-21T00:26:23.939Z,195.42857
2022-09-21T00:31:25.802Z,187.47826
2022-09-21T00:36:27.608Z,177.33333
2022-09-21T00:41:29.383Z,176.45283
2022-09-21T00:46:31.123Z,180.92308
2022-09-21T00:51:32.877Z,181.83784
2022-09-21T00:56:35.187Z,181.83784
2022-09-21T01:01:36.811Z,179.1145
2022-09-21T01:06:38.420Z,178.22053
2022-09-21T01:11:40.083Z,176.45283
2022-09-21T01:16:41.738Z,176.45283
2022-09-21T01:21:43.428Z,176.45283
2022-09-21T01:26:45.724Z,179.1145
2022-09-21T01:31:47.380Z,173.85075
2022-09-21T01:36:49.064Z,181.83784
2022-09-21T01:41:50.838Z,178.22053
2022-09-21T01:46:52.482Z,175.57895
2022-09-21T01:51:54.136Z,182.75969
2022-09-21T01:56:56.431Z,185.56863
2022-09-21T02:01:58.057Z,181.83784
2022-09-21T02:06:59.855Z,185.56863
2022-09-21T02:12:01.434Z,187.47826
2022-09-21T02:17:02.853Z,191.38956
2022-09-21T02:22:04.304Z,191.38956
2022-09-21T02:27:07.167Z,193.39271
2022-09-21T02:32:08.621Z,191.38956
2022-09-21T02:37:10.121Z,191.38956
2022-09-21T02:42:11.650Z,188.44444
2022-09-21T02:47:13.113Z,185.56863
2022-09-21T02:52:14.789Z,186.51969
2022-09-21T02:57:17.262Z,185.56863
2022-09-21T03:02:19.097Z,186.51969
2022-09-21T03:07:20.836Z,192.3871
2022-09-21T03:12:22.754Z,193.39271
2022-09-21T03:17:24.489Z,188.44444
2022-09-21T03:22:26.227Z,190.4
2022-09-21T03:27:28.946Z,189.41833
2022-09-21T03:32:30.688Z,188.44444
2022-09-21T03:37:32.431Z,191.38956
2022-09-21T03:42:34.170Z,197.49794
2022-09-21T03:47:35.897Z,193.39271
2022-09-21T03:52:37.656Z,187.47826
2022-09-21T03:57:40.105Z,192.3871
2022-09-21T04:02:41.922Z,181.83784
2022-09-21T04:07:44.504Z,186.51969
2022-09-21T04:12:46.300Z,182.75969
2022-09-21T04:17:48.054Z,179.1145
2022-09-21T04:22:49.789Z,183.68872
2022-09-21T04:27:51.771Z,180.01533
2022-09-21T04:32:53.498Z,180.01533
2022-09-21T04:37:55.225Z,173.85075
2022-09-21T04:42:57.171Z,168.81752
2022-09-21T04:47:58.949Z,171.30627
2022-09-21T04:53:00.723Z,169.64103
2022-09-21T04:58:02.596Z,161.66784
2022-09-21T05:03:04.077Z,156.41379
2022-09-21T05:08:05.565Z,158.63415
2022-09-21T05:13:07.129Z,160.14035
2022-09-21T05:18:08.675Z,152.10811
2022-09-21T05:23:12.592Z,159.38462
2022-09-21T05:28:18.223Z,161.66784
2022-09-21T05:33:19.983Z,158.63415
2022-09-21T05:38:21.760Z,166.38267
2022-09-21T05:43:23.616Z,167.18841
2022-09-21T05:48:25.416Z,158.63415
2022-09-21T05:53:27.165Z,168
2022-09-21T05:58:29.239Z,171.30627
2022-09-21T06:03:30.968Z,169.64103
2022-09-21T06:08:32.671Z,168
2022-09-21T06:13:34.508Z,160.90141
2022-09-21T06:18:36.264Z,161.66784
2022-09-21T06:23:38.496Z,162.43972
2022-09-21T06:28:40.634Z,154.9589
2022-09-21T06:33:46.169Z,144
2022-09-21T06:38:49.658Z,154.23891
2022-09-21T06:43:51.342Z,166.38267
2022-09-21T06:48:52.916Z,162.43972
2022-09-21T06:53:54.382Z,145.96721
2022-09-21T06:58:56.026Z,139.55556
2022-09-21T07:03:57.655Z,147.30033
2022-09-21T07:14:31.575Z,161.66784
2022-09-21T07:19:33.398Z,152.81356
2022-09-21T07:24:35.171Z,160.14035
2022-09-21T07:29:37.340Z,158.63415
2022-09-21T07:34:39.170Z,171.30627
2022-09-21T07:39:40.946Z,165.58273
2022-09-21T07:44:42.735Z,160.90141
2022-09-21T07:49:44.566Z,183.68872
2022-09-21T07:54:46.314Z,186.51969
2022-09-21T07:59:48.315Z,172.14815
2022-09-21T08:04:50.073Z,164
2022-09-21T08:09:51.840Z,192.3871
2022-09-21T08:14:53.583Z,201.74059
2022-09-21T08:19:55.291Z,197.49794
2022-09-21T08:24:56.995Z,193.39271
2022-09-21T08:29:59.629Z,196.45902
2022-09-21T08:35:01.379Z,178.22053
2022-09-21T08:40:02.888Z,162.43972
2022-09-21T08:45:04.405Z,175.57895
2022-09-21T08:50:05.907Z,181.83784
2022-09-21T08:55:07.350Z,172.14815
2022-09-21T09:00:09.101Z,157.88889
2022-09-21T09:05:10.572Z,187.47826
2022-09-21T09:10:12.249Z,195.42857
2022-09-21T09:15:13.716Z,184.625
2022-09-21T09:20:15.304Z,197.49794
2022-09-21T09:25:16.762Z,181.83784
2022-09-21T09:30:19.432Z,187.47826
2022-09-21T09:35:21.177Z,179.1145
2022-09-21T09:40:23.059Z,177.33333
2022-09-21T09:45:26.167Z,184.625
2022-09-21T09:50:27.969Z,176.45283
2022-09-21T09:55:29.582Z,172.99628
2022-09-21T10:00:31.505Z,199.60166
2022-09-21T10:05:33.226Z,197.49794
2022-09-21T10:10:34.662Z,190.4
2022-09-21T10:15:36.570Z,181.83784
2022-09-21T10:20:38.244Z,195.42857
2022-09-21T10:25:40.398Z,180.92308
2022-09-21T10:30:43.131Z,187.47826
2022-09-21T10:35:44.776Z,185.56863
2022-09-21T10:40:46.497Z,186.51969
2022-09-21T10:45:48.266Z,197.49794
2022-09-21T10:50:49.915Z,180.01533
2022-09-21T10:56:04.804Z,164.78853
2022-09-21T11:01:16.648Z,154.9589
2022-09-21T11:06:18.372Z,209.51724
2022-09-21T11:11:19.809Z,212.99563
2022-09-21T11:16:21.731Z,212.99563
2022-09-21T11:21:23.520Z,189.41833
2022-09-21T11:26:25.259Z,174.71161
2022-09-21T11:31:27.423Z,160.14035
2022-09-21T11:36:29.138Z,167.18841
2022-09-21T11:41:30.860Z,165.58273
2022-09-21T11:46:32.703Z,157.14879
2022-09-21T11:51:34.442Z,150.71141
2022-09-21T11:56:36.177Z,153.52381
2022-09-21T12:01:38.094Z,157.88889
2022-09-21T12:06:39.527Z,164
2022-09-21T12:11:41.254Z,147.97351
2022-09-21T12:16:43.169Z,136.5
2022-09-21T12:21:44.866Z,147.30033
2022-09-21T12:26:46.634Z,157.88889
2022-09-21T12:31:48.485Z,165.58273
2022-09-21T12:36:50.129Z,155.68385
2022-09-21T12:41:51.783Z,166.38267
2022-09-21T12:46:53.664Z,168.81752
2022-09-21T12:51:55.405Z,190.4
2022-09-21T12:56:57.073Z,180.92308
2022-09-21T13:01:59.163Z,196.45902
2022-09-21T13:07:00.930Z,192.3871
2022-09-21T13:12:02.635Z,178.22053
2022-09-21T13:17:04.092Z,180.92308
2022-09-21T13:22:05.584Z,175.57895
2022-09-21T13:27:07.087Z,167.18841
2022-09-21T13:32:09.131Z,152.10811
2022-09-21T13:37:10.744Z,150.71141
2022-09-21T13:42:12.203Z,164
2022-09-21T13:47:13.690Z,180.92308
2022-09-21T13:52:15.205Z,182.75969
2022-09-21T13:57:16.953Z,179.1145
2022-09-21T14:02:18.991Z,190.4
2022-09-21T14:07:20.693Z,198.54545
2022-09-21T14:12:22.347Z,203.91561
2022-09-21T14:17:25.567Z,220.23318
2022-09-21T14:22:27.396Z,225.27854
2022-09-21T14:27:29.175Z,234.56604
2022-09-21T14:32:31.938Z,227.87097
2022-09-21T14:37:33.580Z,245.96078
2022-09-21T14:42:35.348Z,222.73303
2022-09-21T14:47:37.217Z,231.85047
2022-09-21T14:52:38.921Z,238.73684
2022-09-21T14:57:40.639Z,235.94313
2022-09-21T15:02:42.533Z,240.15385
2022-09-21T15:07:44.398Z,235.94313
2022-09-21T15:12:46.107Z,237.33333
2022-09-21T15:17:47.874Z,243.02913
2022-09-21T15:22:49.594Z,245.96078
2022-09-21T15:27:51.394Z,237.33333
2022-09-21T15:32:53.315Z,222.73303
2022-09-21T15:37:55.087Z,241.58454
2022-09-21T15:42:56.807Z,226.56881
2022-09-21T15:47:58.560Z,237.33333
2022-09-21T15:53:00.275Z,238.73684
2022-09-21T15:58:02.085Z,229.18519
2022-09-21T16:03:04.691Z,220.23318
2022-09-21T16:08:06.591Z,207.24786
2022-09-21T16:13:08.042Z,198.54545
2022-09-21T16:18:09.495Z,191.38956
2022-09-21T16:23:11.054Z,176.45283
2022-09-21T16:28:12.504Z,188.44444
2022-09-21T16:33:14.335Z,188.44444
2022-09-21T16:38:15.861Z,188.44444
2022-09-21T16:43:17.580Z,185.56863
2022-09-21T16:48:19.402Z,189.41833
2022-09-21T16:53:21.135Z,197.49794
2022-09-21T16:58:22.858Z,197.49794
2022-09-21T17:03:24.706Z,192.3871
2022-09-21T17:08:26.408Z,189.41833
2022-09-21T17:13:28.158Z,182.75969
2022-09-21T17:18:29.955Z,191.38956
2022-09-21T17:23:31.674Z,184.625
2022-09-21T17:28:33.408Z,178.22053
2022-09-21T17:33:35.345Z,170.47059
2022-09-21T17:38:36.970Z,168.81752
2022-09-21T17:43:38.604Z,167.18841
2022-09-21T17:48:40.279Z,166.38267
2022-09-21T17:53:41.936Z,164.78853
2022-09-21T17:58:43.553Z,164
2022-09-21T18:03:45.503Z,157.88889
2022-09-21T18:08:47.145Z,160.90141
2022-09-21T18:13:48.868Z,163.21708
2022-09-21T18:18:50.600Z,164.78853
2022-09-21T18:23:52.405Z,163.21708
2022-09-21T18:28:54.026Z,160.14035
2022-09-21T18:33:55.981Z,159.38462
2022-09-21T18:38:57.614Z,158.63415
2022-09-21T18:43:59.267Z,152.81356
2022-09-21T18:49:00.946Z,153.52381
2022-09-21T18:54:02.404Z,152.10811
2022-09-21T18:59:03.822Z,154.9589
2022-09-21T19:04:05.475Z,154.9589
2022-09-21T19:09:07.245Z,152.81356
2022-09-21T19:14:09.139Z,150.71141
2022-09-21T19:19:10.584Z,147.30033
2022-09-21T19:24:12.014Z,142.70968
2022-09-21T19:29:13.669Z,145.96721
2022-09-21T19:34:15.540Z,143.35275
2022-09-21T19:39:17.014Z,145.30719
2022-09-21T19:44:18.472Z,147.30033
2022-09-21T19:49:19.917Z,150.71141
2022-09-21T19:54:21.357Z,149.33333
2022-09-21T19:59:23.023Z,147.97351
2022-09-21T20:04:24.675Z,144
2022-09-21T20:09:26.110Z,150.02007
2022-09-21T20:14:27.547Z,149.33333
2022-09-21T20:19:29.027Z,147.30033
2022-09-21T20:24:30.456Z,147.30033
2022-09-21T20:29:31.920Z,147.30033
2022-09-21T20:34:33.796Z,145.96721
2022-09-21T20:39:35.240Z,145.96721
2022-09-21T20:44:36.696Z,146.63158
2022-09-21T20:49:38.204Z,148.65116
2022-09-21T20:54:39.988Z,147.97351
2022-09-21T20:59:41.704Z,147.97351
2022-09-21T21:04:43.896Z,148.65116
2022-09-21T21:09:46.114Z,150.02007
2022-09-21T21:14:47.558Z,147.97351
2022-09-21T21:19:49.105Z,147.30033
2022-09-21T21:24:50.644Z,145.96721
2022-09-21T21:29:52.187Z,146.63158
2022-09-21T21:34:53.874Z,142.70968
2022-09-21T21:39:55.376Z,146.63158
2022-09-21T21:44:56.945Z,144.65147
2022-09-21T21:49:58.493Z,142.70968
2022-09-21T21:54:59.975Z,143.35275
2022-09-21T22:00:01.486Z,143.35275
2022-09-21T22:05:03.104Z,142.07074
2022-09-21T22:10:04.629Z,144
2022-09-21T22:15:06.068Z,141.4359
2022-09-21T22:20:07.732Z,142.07074
2022-09-21T22:25:09.469Z,141.4359
2022-09-21T22:30:10.893Z,140.80511
2022-09-21T22:35:12.554Z,140.17834
2022-09-21T22:40:14.224Z,139.55556
2022-09-21T22:45:16.070Z,139.55556
2022-09-21T22:50:17.941Z,140.80511
2022-09-21T22:55:19.670Z,141.4359
2022-09-21T23:00:21.165Z,140.80511
2022-09-21T23:05:23.291Z,139.55556
2022-09-21T23:10:25.062Z,138.32177
2022-09-21T23:15:26.782Z,138.32177
2022-09-21T23:20:28.592Z,137.71069
2022-09-21T23:25:30.377Z,137.10345
2022-09-21T23:30:31.943Z,136.5
2022-09-21T23:35:33.821Z,134.71207
2022-09-21T23:40:35.639Z,134.12346
2022-09-21T23:45:37.145Z,133.53846
2022-09-21T23:50:38.993Z,132.3792
2022-09-21T23:55:40.723Z,132.3792
